createdAt,value
2022-11-19T00:02:01.769Z,98269.47
2022-11-19T00:04:30.999Z,98266.31
2022-11-19T00:06:58.817Z,98266.88
2022-11-19T00:09:26.817Z,98274.53
2022-11-19T00:12:11.884Z,98278.16
2022-11-19T00:14:39.735Z,98274.66
2022-11-19T00:17:07.621Z,98275.28
2022-11-19T00:19:36.882Z,98278.31
2022-11-19T00:22:04.719Z,98276.31
2022-11-19T00:24:32.622Z,98278.97
2022-11-19T00:27:00.395Z,98294.13
2022-11-19T00:29:28.240Z,98293.09
2022-11-19T00:31:56.008Z,98292.97
2022-11-19T00:34:23.855Z,98298.66
2022-11-19T00:36:53.051Z,98290.81
2022-11-19T00:39:21.426Z,98290.66
2022-11-19T00:41:49.625Z,98295.31
2022-11-19T00:44:17.405Z,98293.47
2022-11-19T00:46:45.481Z,98287.03
2022-11-19T00:49:13.292Z,98289.09
2022-11-19T00:51:41.212Z,98293.63
2022-11-19T00:54:10.356Z,98296.75
2022-11-19T00:56:38.324Z,98294.41
2022-11-19T00:59:06.400Z,98298.38
2022-11-19T01:01:34.573Z,98293.47
2022-11-19T01:04:02.629Z,98287.16
2022-11-19T01:06:30.824Z,98302.56
2022-11-19T01:08:58.910Z,98302.78
2022-11-19T01:11:30.376Z,98302.94
2022-11-19T01:13:58.839Z,98310.97
2022-11-19T01:16:28.861Z,98303.25
2022-11-19T01:18:56.988Z,98320.56
2022-11-19T01:21:27.176Z,98318.22
2022-11-19T01:23:55.234Z,98316.53
2022-11-19T01:26:23.241Z,98315.22
2022-11-19T01:28:52.771Z,98320.53
2022-11-19T01:31:22.660Z,98321.03
2022-11-19T01:33:50.929Z,98314.69
2022-11-19T01:36:20.796Z,98325.34
2022-11-19T01:38:50.930Z,98330.91
2022-11-19T01:41:19.607Z,98322.28
2022-11-19T01:43:49.896Z,98317.50
2022-11-19T01:46:21.436Z,98324.25
2022-11-19T01:48:53.086Z,98330.91
2022-11-19T01:51:24.023Z,98329.69
2022-11-19T01:53:53.809Z,98334.78
2022-11-19T01:56:23.671Z,98341.66
2022-11-19T01:58:56.231Z,98344.41
2022-11-19T02:01:25.531Z,98351.47
2022-11-19T02:03:54.117Z,98340.09
2022-11-19T02:06:22.517Z,98342.44
2022-11-19T02:08:51.584Z,98344.75
2022-11-19T02:11:44.782Z,98350.19
2022-11-19T02:14:26.042Z,98339.59
2022-11-19T02:17:02.771Z,98356.56
2022-11-19T02:19:55.771Z,98348.72
2022-11-19T02:22:40.864Z,98340.88
2022-11-19T02:25:22.799Z,98345.56
2022-11-19T02:28:13.077Z,98346.34
2022-11-19T02:30:44.926Z,98348.28
2022-11-19T02:33:20.636Z,98360.78
2022-11-19T02:35:56.424Z,98352.94
2022-11-19T02:38:30.412Z,98349.03
2022-11-19T02:41:00.680Z,98351.31
2022-11-19T02:43:36.795Z,98361.63
2022-11-19T02:46:09.803Z,98364.34
2022-11-19T02:48:41.357Z,98363.69
2022-11-19T02:51:10.332Z,98362.81
2022-11-19T02:53:38.297Z,98369.50
2022-11-19T02:56:14.698Z,98378.88
2022-11-19T02:59:06.303Z,98375.34
2022-11-19T03:01:56.970Z,98371.03
2022-11-19T03:04:33.078Z,98370.41
2022-11-19T03:07:05.854Z,98379.06
2022-11-19T03:09:44.057Z,98374.69
2022-11-19T03:12:24.366Z,98374.59
2022-11-19T03:15:15.784Z,98378.13
2022-11-19T03:18:05.625Z,98378.53
2022-11-19T03:20:38.317Z,98385.28
2022-11-19T03:23:13.688Z,98375.00
2022-11-19T03:25:50.210Z,98371.53
2022-11-19T03:28:24.076Z,98372.63
2022-11-19T03:30:55.028Z,98385.56
2022-11-19T03:33:27.926Z,98381.66
2022-11-19T03:35:59.748Z,98370.66
2022-11-19T03:38:32.369Z,98372.28
2022-11-19T03:41:02.920Z,98384.44
2022-11-19T03:43:32.578Z,98392.66
2022-11-19T03:46:06.487Z,98388.06
2022-11-19T03:48:37.532Z,98388.94
2022-11-19T03:51:11.227Z,98387.66
2022-11-19T03:53:39.221Z,98386.53
2022-11-19T03:56:11.580Z,98396.03
2022-11-19T03:58:43.060Z,98391.69
2022-11-19T04:01:12.958Z,98396.00
2022-11-19T04:04:02.320Z,98398.75
2022-11-19T04:06:30.415Z,98396.03
2022-11-19T04:08:59.213Z,98400.75
2022-11-19T04:13:54.047Z,98402.66
2022-11-19T04:16:21.890Z,98403.09
2022-11-19T04:18:51.115Z,98408.25
2022-11-19T04:21:18.921Z,98400.38
2022-11-19T04:23:46.780Z,98402.38
2022-11-19T04:26:14.617Z,98409.81
2022-11-19T04:28:42.509Z,98404.69
2022-11-19T04:31:13.637Z,98413.34
2022-11-19T04:33:45.542Z,98409.06
2022-11-19T04:36:15.525Z,98412.97
2022-11-19T04:38:43.777Z,98419.69
2022-11-19T04:41:14.616Z,98426.34
2022-11-19T04:43:42.455Z,98429.50
2022-11-19T04:46:10.396Z,98428.31
2022-11-19T04:48:38.347Z,98432.66
2022-11-19T04:51:06.203Z,98427.91
2022-11-19T04:53:35.887Z,98423.56
2022-11-19T04:56:03.741Z,98423.19
2022-11-19T04:58:31.520Z,98423.53
2022-11-19T05:00:59.395Z,98425.19
2022-11-19T05:03:27.403Z,98416.91
2022-11-19T05:05:55.196Z,98426.34
2022-11-19T05:08:23.496Z,98420.03
2022-11-19T05:10:52.961Z,98412.97
2022-11-19T05:13:20.832Z,98421.19
2022-11-19T05:15:49.146Z,98421.16
2022-11-19T05:18:17.067Z,98421.63
2022-11-19T05:20:44.940Z,98423.97
2022-11-19T05:23:12.884Z,98417.69
2022-11-19T05:25:40.687Z,98413.75
2022-11-19T05:28:10.083Z,98413.75
2022-11-19T05:30:37.937Z,98415.66
2022-11-19T05:33:06.276Z,98415.34
2022-11-19T05:35:34.238Z,98414.91
2022-11-19T05:38:02.325Z,98422.81
2022-11-19T05:40:30.191Z,98423.59
2022-11-19T05:42:58.026Z,98426.75
2022-11-19T05:45:27.262Z,98442.13
2022-11-19T05:47:56.539Z,98445.28
2022-11-19T05:50:24.369Z,98463.38
2022-11-19T05:52:52.324Z,98451.94
2022-11-19T05:55:20.807Z,98450.38
2022-11-19T05:57:48.737Z,98444.88
2022-11-19T06:00:17.820Z,98448.03
2022-11-19T06:02:47.457Z,98449.19
2022-11-19T06:05:15.582Z,98453.13
2022-11-19T06:07:43.465Z,98448.41
2022-11-19T06:10:11.730Z,98447.19
2022-11-19T06:12:45.220Z,98451.94
2022-11-19T06:15:13.703Z,98451.09
2022-11-19T06:17:41.589Z,98454.63
2022-11-19T06:20:11.773Z,98450.34
2022-11-19T06:22:40.081Z,98452.31
2022-11-19T06:25:08.755Z,98456.16
2022-11-19T06:27:36.772Z,98471.84
2022-11-19T06:30:05.326Z,98465.16
2022-11-19T06:32:33.390Z,98452.25
2022-11-19T06:35:01.264Z,98460.13
2022-11-19T06:37:30.515Z,98467.16
2022-11-19T06:39:58.342Z,98474.97
2022-11-19T06:42:38.346Z,98471.06
2022-11-19T06:45:09.461Z,98475.75
2022-11-19T06:47:38.105Z,98475.03
2022-11-19T06:50:07.153Z,98478.09
2022-11-19T06:52:36.766Z,98481.31
2022-11-19T06:55:05.108Z,98485.19
2022-11-19T06:57:33.118Z,98492.31
2022-11-19T07:00:01.046Z,98507.69
2022-11-19T07:02:29.272Z,98512.31
2022-11-19T07:04:57.144Z,98503.59
2022-11-19T07:07:25.103Z,98498.97
2022-11-19T07:09:54.689Z,98502.88
2022-11-19T07:12:22.840Z,98503.72
2022-11-19T07:14:51.068Z,98502.16
2022-11-19T07:17:19.061Z,98508.44
2022-11-19T07:19:47.036Z,98508.84
2022-11-19T07:22:14.895Z,98514.66
2022-11-19T07:24:42.706Z,98513.78
2022-11-19T07:27:12.175Z,98512.66
2022-11-19T07:29:40.144Z,98515.81
2022-11-19T07:32:07.962Z,98520.22
2022-11-19T07:34:35.955Z,98513.16
2022-11-19T07:37:03.718Z,98520.97
2022-11-19T07:39:31.494Z,98519.88
2022-11-19T07:42:16.775Z,98519.50
2022-11-19T07:44:50.841Z,98521.31
2022-11-19T07:47:21.978Z,98528.94
2022-11-19T07:49:49.837Z,98524.91
2022-11-19T07:52:17.877Z,98519.28
2022-11-19T07:54:45.731Z,98516.28
2022-11-19T07:57:13.865Z,98516.34
2022-11-19T07:59:41.704Z,98533.94
2022-11-19T08:02:13.135Z,98525.84
2022-11-19T08:04:40.981Z,98522.25
2022-11-19T08:07:08.995Z,98527.75
2022-11-19T08:09:37.534Z,98526.72
2022-11-19T08:12:05.795Z,98527.88
2022-11-19T08:14:33.669Z,98530.94
2022-11-19T08:17:18.884Z,98525.84
2022-11-19T08:19:48.105Z,98538.13
2022-11-19T08:22:15.953Z,98533.44
2022-11-19T08:24:43.771Z,98540.91
2022-11-19T08:27:12.897Z,98544.78
2022-11-19T08:29:40.743Z,98547.16
2022-11-19T08:32:08.528Z,98548.75
2022-11-19T08:34:36.702Z,98547.63
2022-11-19T08:37:05.888Z,98552.75
2022-11-19T08:39:33.721Z,98567.72
2022-11-19T08:42:18.941Z,98560.97
2022-11-19T08:44:46.758Z,98557.75
2022-11-19T08:47:14.628Z,98570.84
2022-11-19T08:49:42.482Z,98556.56
2022-11-19T08:52:11.769Z,98561.59
2022-11-19T08:54:39.571Z,98558.56
2022-11-19T08:57:07.430Z,98562.91
2022-11-19T08:59:35.290Z,98570.78
2022-11-19T09:02:03.044Z,98574.28
2022-11-19T09:04:30.837Z,98572.72
2022-11-19T09:06:58.921Z,98576.94
2022-11-19T09:09:28.169Z,98577.38
2022-11-19T09:11:56.362Z,98575.78
2022-11-19T09:14:24.155Z,98575.31
2022-11-19T09:16:51.935Z,98570.69
2022-11-19T09:19:19.847Z,98581.25
2022-11-19T09:21:47.679Z,98577.41
2022-11-19T09:24:15.672Z,98578.59
2022-11-19T09:26:50.231Z,98584.88
2022-11-19T09:29:20.363Z,98587.91
2022-11-19T09:31:48.198Z,98590.16
2022-11-19T09:34:16.143Z,98592.88
2022-11-19T09:36:43.958Z,98599.25
2022-11-19T09:39:12.274Z,98600.38
2022-11-19T09:41:48.717Z,98588.63
2022-11-19T09:44:43.132Z,98586.16
2022-11-19T09:47:24.368Z,98593.28
2022-11-19T09:50:04.629Z,98594.06
2022-11-19T09:52:38.242Z,98597.25
2022-11-19T09:55:07.729Z,98596.06
2022-11-19T09:57:41.273Z,98594.03
2022-11-19T10:00:10.564Z,98598.00
2022-11-19T10:02:41.275Z,98597.31
2022-11-19T10:05:14.864Z,98602.03
2022-11-19T10:07:53.639Z,98599.31
2022-11-19T10:10:34.075Z,98596.50
2022-11-19T10:13:12.777Z,98595.34
2022-11-19T10:15:54.401Z,98595.28
2022-11-19T10:18:30.229Z,98585.53
2022-11-19T10:21:07.597Z,98590.66
2022-11-19T10:23:49.385Z,98589.09
2022-11-19T10:26:18.637Z,98585.94
2022-11-19T10:28:54.993Z,98579.22
2022-11-19T10:31:30.392Z,98576.44
2022-11-19T10:34:05.639Z,98575.25
2022-11-19T10:36:41.175Z,98573.72
2022-11-19T10:39:18.012Z,98569.72
2022-11-19T10:41:50.476Z,98568.13
2022-11-19T10:44:43.689Z,98581.84
2022-11-19T10:47:17.551Z,98581.88
2022-11-19T10:49:46.567Z,98574.47
2022-11-19T10:52:26.491Z,98568.97
2022-11-19T10:55:00.290Z,98563.47
2022-11-19T10:57:31.347Z,98572.41
2022-11-19T11:00:01.658Z,98567.28
2022-11-19T11:02:34.303Z,98566.97
2022-11-19T11:05:09.118Z,98566.88
2022-11-19T11:07:50.280Z,98566.16
2022-11-19T11:10:46.286Z,98571.31
2022-11-19T11:13:41.204Z,98569.75
2022-11-19T11:16:12.919Z,98568.16
2022-11-19T11:18:41.876Z,98571.75
2022-11-19T11:21:14.443Z,98576.75
2022-11-19T11:23:51.333Z,98566.56
2022-11-19T11:26:22.884Z,98569.72
2022-11-19T11:29:00.141Z,98563.03
2022-11-19T11:31:38.617Z,98566.16
2022-11-19T11:34:08.115Z,98555.94
2022-11-19T11:36:38.233Z,98560.66
2022-11-19T11:39:07.160Z,98554.75
2022-11-19T11:44:29.845Z,98555.94
2022-11-19T11:47:01.728Z,98553.16
2022-11-19T11:49:32.600Z,98555.47
2022-11-19T11:52:08.281Z,98551.19
2022-11-19T11:54:37.235Z,98552.38
2022-11-19T11:57:18.335Z,98550.06
2022-11-19T11:59:46.659Z,98557.84
2022-11-19T12:02:26.743Z,98553.19
2022-11-19T12:04:56.739Z,98551.63
2022-11-19T12:07:56.396Z,98554.00
2022-11-19T12:10:30.195Z,98554.38
2022-11-19T12:13:40.972Z,98557.94
2022-11-19T12:16:15.330Z,98554.00
2022-11-19T12:18:54.665Z,98552.44
2022-11-19T12:21:35.698Z,98559.94
2022-11-19T12:24:19.098Z,98557.19
2022-11-19T12:26:58.050Z,98560.28
2022-11-19T12:29:31.288Z,98550.84
2022-11-19T12:32:11.049Z,98558.97
2022-11-19T12:35:04.999Z,98564.13
2022-11-19T12:37:51.622Z,98557.53
2022-11-19T12:40:40.390Z,98561.47
2022-11-19T12:43:26.094Z,98560.69
2022-11-19T12:46:02.411Z,98568.91
2022-11-19T12:48:50.549Z,98568.56
2022-11-19T12:51:35.050Z,98578.03
2022-11-19T12:54:31.701Z,98579.59
2022-11-19T12:57:17.221Z,98580.38
2022-11-19T13:00:10.373Z,98585.91
2022-11-19T13:02:46.683Z,98582.28
2022-11-19T13:05:19.214Z,98581.94
2022-11-19T13:07:53.904Z,98584.31
2022-11-19T13:10:25.942Z,98587.09
2022-11-19T13:12:56.840Z,98586.22
2022-11-19T13:15:29.154Z,98580.38
2022-11-19T13:18:00.062Z,98585.91
2022-11-19T13:20:35.726Z,98576.09
2022-11-19T13:23:07.616Z,98576.50
2022-11-19T13:25:40.822Z,98582.00
2022-11-19T13:28:19.622Z,98581.16
2022-11-19T13:30:51.864Z,98582.69
2022-11-19T13:33:25.007Z,98580.78
2022-11-19T13:35:59.517Z,98577.25
2022-11-19T13:38:44.511Z,98584.66
2022-11-19T13:41:16.382Z,98585.03
2022-11-19T13:44:02.864Z,98571.63
2022-11-19T13:46:35.631Z,98570.09
2022-11-19T13:49:08.101Z,98575.19
2022-11-19T13:51:39.826Z,98572.78
2022-11-19T13:54:10.273Z,98572.44
2022-11-19T13:56:39.343Z,98565.63
2022-11-19T13:59:08.719Z,98569.25
2022-11-19T14:01:51.103Z,98570.38
2022-11-19T14:04:36.681Z,98573.56
2022-11-19T14:07:33.667Z,98571.53
2022-11-19T14:10:13.365Z,98568.75
2022-11-19T14:12:55.048Z,98582.25
2022-11-19T14:16:03.016Z,98577.50
2022-11-19T14:18:54.770Z,98583.25
2022-11-19T14:22:00.170Z,98582.56
2022-11-19T14:25:16.871Z,98585.69
2022-11-19T14:27:46.261Z,98591.25
2022-11-19T14:30:19.819Z,98597.16
2022-11-19T14:32:50.925Z,98596.38
2022-11-19T14:35:29.987Z,98591.16
2022-11-19T14:38:13.048Z,98595.06
2022-11-19T14:40:43.961Z,98596.34
2022-11-19T14:43:44.516Z,98599.03
2022-11-19T14:46:28.438Z,98588.81
2022-11-19T14:49:05.460Z,98593.94
2022-11-19T14:51:38.778Z,98597.44
2022-11-19T14:54:19.293Z,98593.53
2022-11-19T14:56:59.977Z,98612.84
2022-11-19T14:59:30.617Z,98605.66
2022-11-19T15:02:00.018Z,98606.94
2022-11-19T15:04:34.487Z,98606.19
2022-11-19T15:07:03.970Z,98595.06
2022-11-19T15:10:08.355Z,98597.88
2022-11-19T15:12:48.351Z,98611.75
2022-11-19T15:15:42.385Z,98603.41
2022-11-19T15:18:31.792Z,98620.78
2022-11-19T15:21:14.612Z,98619.91
2022-11-19T15:23:49.752Z,98610.06
2022-11-19T15:26:24.180Z,98618.41
2022-11-19T15:29:07.306Z,98607.34
2022-11-19T15:31:50.745Z,98609.63
2022-11-19T15:35:09.761Z,98609.28
2022-11-19T15:37:45.614Z,98604.50
2022-11-19T15:40:19.825Z,98602.19
2022-11-19T15:42:52.796Z,98597.81
2022-11-19T15:45:24.315Z,98587.34
2022-11-19T15:47:59.620Z,98592.09
2022-11-19T15:50:29.146Z,98596.06
2022-11-19T15:53:01.211Z,98597.59
2022-11-19T15:55:31.907Z,98594.47
2022-11-19T15:58:03.800Z,98578.22
2022-11-19T16:00:32.049Z,98587.84
2022-11-19T16:03:03.796Z,98602.41
2022-11-19T16:05:34.011Z,98615.00
2022-11-19T16:08:08.154Z,98619.66
2022-11-19T16:10:40.463Z,98620.34
2022-11-19T16:13:39.890Z,98618.78
2022-11-19T16:16:34.067Z,98613.22
2022-11-19T16:19:06.545Z,98608.88
2022-11-19T16:21:37.975Z,98614.69
2022-11-19T16:24:31.808Z,98611.81
2022-11-19T16:27:02.138Z,98616.91
2022-11-19T16:29:33.981Z,98607.34
2022-11-19T16:32:04.350Z,98612.56
2022-11-19T16:34:34.417Z,98608.72
2022-11-19T16:37:02.826Z,98620.81
2022-11-19T16:39:32.541Z,98613.34
2022-11-19T16:42:17.957Z,98620.78
2022-11-19T16:44:47.630Z,98628.75
2022-11-19T16:47:21.432Z,98624.72
2022-11-19T16:50:07.845Z,98629.34
2022-11-19T16:52:42.017Z,98633.44
2022-11-19T16:55:43.469Z,98638.13
2022-11-19T16:58:17.215Z,98641.31
2022-11-19T17:00:49.183Z,98642.06
2022-11-19T17:03:20.461Z,98643.59
2022-11-19T17:05:53.096Z,98632.00
2022-11-19T17:08:23.301Z,98625.50
2022-11-19T17:11:11.094Z,98636.09
2022-11-19T17:13:39.016Z,98636.34
2022-11-19T17:16:18.657Z,98638.34
2022-11-19T17:18:46.568Z,98628.19
2022-11-19T17:21:26.871Z,98642.69
2022-11-19T17:23:54.847Z,98644.69
2022-11-19T17:26:25.719Z,98634.72
2022-11-19T17:28:58.712Z,98625.81
2022-11-19T17:31:28.332Z,98637.34
2022-11-19T17:33:57.618Z,98638.16
2022-11-19T17:36:27.736Z,98643.28
2022-11-19T17:38:56.061Z,98648.44
2022-11-19T17:41:45.593Z,98647.69
2022-11-19T17:44:33.931Z,98641.94
2022-11-19T17:47:02.565Z,98640.38
2022-11-19T17:49:31.220Z,98644.03
2022-11-19T17:52:00.448Z,98644.31
2022-11-19T17:54:30.940Z,98649.56
2022-11-19T17:56:58.783Z,98667.19
2022-11-19T17:59:26.693Z,98674.78
2022-11-19T18:01:55.898Z,98666.97
2022-11-19T18:04:23.783Z,98661.47
2022-11-19T18:06:51.785Z,98659.00
2022-11-19T18:09:21.153Z,98660.31
2022-11-19T18:11:49.065Z,98669.28
2022-11-19T18:14:17.084Z,98660.63
2022-11-19T18:16:44.939Z,98666.44
2022-11-19T18:19:14.420Z,98667.66
2022-11-19T18:21:43.438Z,98666.53
2022-11-19T18:24:12.588Z,98663.28
2022-11-19T18:26:42.551Z,98653.44
2022-11-19T18:29:10.452Z,98649.19
2022-11-19T18:31:44.163Z,98668.41
2022-11-19T18:34:17.124Z,98659.69
2022-11-19T18:36:46.525Z,98662.13
2022-11-19T18:39:23.410Z,98674.31
2022-11-19T18:42:00.357Z,98677.25
2022-11-19T18:44:33.425Z,98681.88
2022-11-19T18:47:02.078Z,98685.19
2022-11-19T18:49:30.454Z,98675.47
2022-11-19T18:51:58.318Z,98688.31
2022-11-19T18:54:26.142Z,98684.44
2022-11-19T18:56:54.130Z,98675.09
2022-11-19T18:59:23.771Z,98673.53
2022-11-19T19:01:55.649Z,98676.72
2022-11-19T19:04:24.950Z,98679.09
2022-11-19T19:06:52.894Z,98692.13
2022-11-19T19:09:21.517Z,98685.44
2022-11-19T19:12:12.950Z,98685.50
2022-11-19T19:14:43.223Z,98690.25
2022-11-19T19:17:11.640Z,98687.06
2022-11-19T19:19:39.964Z,98690.59
2022-11-19T19:22:08.605Z,98681.91
2022-11-19T19:24:36.717Z,98691.44
2022-11-19T19:27:05.404Z,98686.94
2022-11-19T19:29:33.450Z,98690.16
2022-11-19T19:32:02.689Z,98692.88
2022-11-19T19:34:30.806Z,98698.84
2022-11-19T19:36:58.638Z,98708.31
2022-11-19T19:39:26.576Z,98703.19
2022-11-19T19:41:54.902Z,98705.56
2022-11-19T19:44:22.786Z,98701.63
2022-11-19T19:46:51.014Z,98704.28
2022-11-19T19:49:20.584Z,98713.72
2022-11-19T19:51:49.052Z,98721.09
2022-11-19T19:54:16.900Z,98708.78
2022-11-19T19:56:44.725Z,98708.78
2022-11-19T19:59:13.784Z,98714.47
2022-11-19T20:01:44.971Z,98707.63
2022-11-19T20:04:12.840Z,98723.25
2022-11-19T20:06:46.166Z,98708.91
2022-11-19T20:09:14.677Z,98708.84
2022-11-19T20:11:42.622Z,98704.53
2022-11-19T20:14:11.017Z,98712.03
2022-11-19T20:16:41.969Z,98705.69
2022-11-19T20:19:13.672Z,98713.19
2022-11-19T20:21:43.460Z,98734.53
2022-11-19T20:24:13.259Z,98733.03
2022-11-19T20:26:42.680Z,98731.28
2022-11-19T20:29:12.387Z,98723.06
2022-11-19T20:31:41.169Z,98722.75
2022-11-19T20:34:09.028Z,98725.78
2022-11-19T20:36:37.356Z,98727.34
2022-11-19T20:39:07.391Z,98732.13
2022-11-19T20:41:52.903Z,98732.22
2022-11-19T20:44:21.508Z,98725.94
2022-11-19T20:46:51.626Z,98731.97
2022-11-19T20:49:21.667Z,98726.81
2022-11-19T20:51:50.660Z,98722.91
2022-11-19T20:54:20.500Z,98717.75
2022-11-19T20:56:49.134Z,98717.47
2022-11-19T20:59:17.030Z,98721.41
2022-11-19T21:01:45.024Z,98727.34
2022-11-19T21:04:13.303Z,98733.63
2022-11-19T21:06:41.689Z,98732.44
2022-11-19T21:09:09.991Z,98728.88
2022-11-19T21:11:39.455Z,98729.59
2022-11-19T21:14:08.226Z,98724.97
2022-11-19T21:16:36.074Z,98724.97
2022-11-19T21:19:04.236Z,98730.03
2022-11-19T21:21:32.043Z,98737.97
2022-11-19T21:23:59.895Z,98731.91
2022-11-19T21:26:28.641Z,98724.53
2022-11-19T21:28:59.248Z,98725.31
2022-11-19T21:31:38.651Z,98718.66
2022-11-19T21:34:07.942Z,98718.59
2022-11-19T21:36:36.179Z,98718.03
2022-11-19T21:39:04.289Z,98723.66
2022-11-19T21:41:32.257Z,98718.41
2022-11-19T21:44:02.679Z,98712.28
2022-11-19T21:46:30.524Z,98708.75
2022-11-19T21:48:58.457Z,98712.41
2022-11-19T21:51:26.361Z,98719.88
2022-11-19T21:53:55.543Z,98712.38
2022-11-19T21:56:23.626Z,98704.16
2022-11-19T21:58:51.699Z,98698.78
2022-11-19T22:01:21.240Z,98696.09
2022-11-19T22:03:49.506Z,98694.53
2022-11-19T22:06:17.330Z,98702.44
2022-11-19T22:08:45.369Z,98703.97
2022-11-19T22:11:32.281Z,98702.78
2022-11-19T22:14:02.367Z,98704.84
2022-11-19T22:16:34.471Z,98708.59
2022-11-19T22:19:02.662Z,98699.66
2022-11-19T22:21:30.651Z,98687.06
2022-11-19T22:23:59.020Z,98688.22
2022-11-19T22:26:27.204Z,98672.84
2022-11-19T22:28:55.336Z,98673.47
2022-11-19T22:31:23.211Z,98689.81
2022-11-19T22:33:53.714Z,98689.22
2022-11-19T22:36:23.229Z,98694.09
2022-11-19T22:38:51.703Z,98687.09
2022-11-19T22:41:22.015Z,98694.47
2022-11-19T22:43:50.671Z,98699.31
2022-11-19T22:46:19.711Z,98712.16
2022-11-19T22:48:47.546Z,98698.50
2022-11-19T22:51:18.498Z,98704.34
2022-11-19T22:53:46.586Z,98700.31
2022-11-19T22:56:16.163Z,98685.13
2022-11-19T22:58:44.200Z,98687.13
2022-11-19T23:01:18.511Z,98687.53
2022-11-19T23:03:47.134Z,98685.38
2022-11-19T23:06:16.762Z,98680.53
2022-11-19T23:08:45.007Z,98682.31
2022-11-19T23:11:14.628Z,98693.34
2022-11-19T23:13:44.120Z,98700.84
2022-11-19T23:16:14.685Z,98701.22
2022-11-19T23:18:46.723Z,98692.88
2022-11-19T23:21:18.255Z,98690.22
2022-11-19T23:23:46.590Z,98695.25
2022-11-19T23:26:16.139Z,98685.03
2022-11-19T23:28:44.768Z,98692.03
2022-11-19T23:31:16.000Z,98686.16
2022-11-19T23:33:44.092Z,98686.16
2022-11-19T23:36:17.581Z,98679.25
2022-11-19T23:38:47.157Z,98676.50
2022-11-19T23:41:16.729Z,98679.63
2022-11-19T23:43:49.937Z,98679.25
2022-11-19T23:46:20.005Z,98676.78
2022-11-19T23:48:50.251Z,98667.09
2022-11-19T23:51:20.128Z,98666.31
2022-11-19T23:53:49.897Z,98668.97
2022-11-19T23:56:19.747Z,98657.63
2022-11-19T23:58:47.920Z,98660.81
